Time;durP1;ratioP1;P1;durP2;ratioP2;P2;SDS_P1;SDS_P2;PMS_P1;PMS_P2;Temp;Humidity;BMP_temperature;BMP_pressure;BME280_temperature;BME280_humidity;BME280_pressure;Samples;Min_cycle;Max_cycle;Signal;HPM_P1;HPM_P2
2021/01/13 00:01:04;;;;;;;1999.90;999.90;;;;;;;1.73;92.18;97112.38;4965370;28;20055;-65
2021/01/13 00:03:31;;;;;;;1999.90;999.90;;;;;;;1.55;92.81;97110.50;4965878;28;20582;-65
2021/01/13 00:05:57;;;;;;;1999.90;999.90;;;;;;;1.90;91.29;97111.00;4964917;28;20050;-65
2021/01/13 00:08:24;;;;;;;1999.90;999.90;;;;;;;1.34;93.08;97108.09;4966169;28;20050;-65
2021/01/13 00:10:50;;;;;;;1999.90;999.90;;;;;;;1.38;93.43;97117.25;4965832;28;20054;-65
2021/01/13 00:13:16;;;;;;;1999.90;999.90;;;;;;;0.73;95.20;97123.38;4966107;28;20046;-64
2021/01/13 00:15:43;;;;;;;1999.90;999.90;;;;;;;0.74;96.13;97118.72;4966076;28;20055;-65
2021/01/13 00:18:11;;;;;;;1999.90;999.90;;;;;;;0.91;96.11;97119.06;4961328;28;20460;-64
2021/01/13 00:20:37;;;;;;;1999.90;999.90;;;;;;;1.17;94.43;97130.38;4966105;28;20526;-65
2021/01/13 00:23:03;;;;;;;1999.90;999.90;;;;;;;0.60;95.58;97134.97;4965480;28;20076;-65
2021/01/13 00:25:30;;;;;;;1999.90;999.90;;;;;;;0.76;96.21;97135.56;4960975;28;20442;-64
2021/01/13 00:27:56;;;;;;;1999.90;999.90;;;;;;;0.95;95.28;97128.22;4962834;28;20456;-64
2021/01/13 00:30:22;;;;;;;1999.90;999.90;;;;;;;1.20;93.48;97137.97;4954280;28;20043;-64
2021/01/13 00:32:49;;;;;;;1999.90;999.90;;;;;;;1.28;92.69;97138.41;4962522;28;20047;-64
2021/01/13 00:35:17;;;;;;;1999.90;999.90;;;;;;;1.40;91.90;97141.50;4962112;28;20420;-64
2021/01/13 00:37:44;;;;;;;1999.90;999.90;;;;;;;1.18;92.61;97144.81;4963304;28;20046;-64
2021/01/13 00:40:11;;;;;;;1999.90;999.90;;;;;;;1.17;93.04;97133.09;4965527;28;20051;-64
2021/01/13 00:42:48;;;;;;;1999.90;999.90;;;;;;;0.99;93.45;97148.31;4965621;28;20058;-64
2021/01/13 00:45:16;;;;;;;1999.90;999.90;;;;;;;1.04;92.97;97151.00;4960613;28;20403;-64
2021/01/13 00:47:43;;;;;;;1999.90;999.90;;;;;;;1.15;92.43;97142.69;4963049;28;20447;-64
2021/01/13 00:50:11;;;;;;;1999.90;999.90;;;;;;;0.90;92.24;97144.66;4958954;28;20061;-64
2021/01/13 00:52:37;;;;;;;1999.90;999.90;;;;;;;0.77;93.30;97151.59;4965374;28;20077;-64
2021/01/13 00:55:04;;;;;;;1999.90;999.90;;;;;;;0.78;93.37;97147.78;4966668;28;20078;-64
2021/01/13 00:57:31;;;;;;;1999.90;999.90;;;;;;;0.99;92.84;97166.59;4964473;28;20058;-64
2021/01/13 00:59:57;;;;;;;1999.90;999.90;;;;;;;1.16;92.11;97168.78;4966514;28;20145;-64
2021/01/13 01:02:24;;;;;;;1999.90;999.90;;;;;;;1.05;92.15;97179.81;4966109;28;20061;-64
2021/01/13 01:04:50;;;;;;;1999.90;999.90;;;;;;;1.58;90.58;97178.81;4964840;28;20503;-64
2021/01/13 01:07:17;;;;;;;1999.90;999.90;;;;;;;1.23;91.13;97174.69;4966143;28;20058;-64
2021/01/13 01:09:43;;;;;;;1999.90;999.90;;;;;;;1.41;90.62;97175.81;4965374;28;20278;-64
2021/01/13 01:12:09;;;;;;;1999.90;999.90;;;;;;;1.86;89.15;97184.41;4965107;28;20426;-64
2021/01/13 01:14:36;;;;;;;1999.90;999.90;;;;;;;1.35;89.74;97180.50;4960007;28;20058;-65
2021/01/13 01:17:09;;;;;;;1999.90;999.90;;;;;;;1.45;89.53;97186.94;4958943;28;20073;-64
2021/01/13 01:19:35;;;;;;;1999.90;999.90;;;;;;;1.71;89.06;97190.06;4963267;28;20444;-65
2021/01/13 01:22:03;;;;;;;1999.90;999.90;;;;;;;1.73;88.70;97188.69;4959508;28;20046;-64
2021/01/13 01:24:29;;;;;;;1999.90;999.90;;;;;;;2.22;87.10;97188.41;4968971;28;20077;-65
2021/01/13 01:26:55;;;;;;;1999.90;999.90;;;;;;;2.36;85.62;97189.28;4966950;28;20255;-65
2021/01/13 01:29:22;;;;;;;1999.90;999.90;;;;;;;2.49;84.26;97186.84;4966177;28;20050;-64
2021/01/13 01:31:52;;;;;;;1999.90;999.90;;;;;;;2.84;83.33;97198.22;4966406;28;20059;-65
2021/01/13 01:34:19;;;;;;;1999.90;999.90;;;;;;;3.01;82.08;97195.69;4970094;28;20054;-65
2021/01/13 01:36:46;;;;;;;1999.90;999.90;;;;;;;3.10;81.51;97198.53;4969474;28;20098;-64
2021/01/13 01:39:12;;;;;;;1999.90;999.90;;;;;;;2.92;81.84;97200.25;4969799;28;20487;-65
2021/01/13 01:41:42;;;;;;;1999.90;999.90;;;;;;;2.49;82.45;97200.50;4961534;28;20051;-65
2021/01/13 01:44:08;;;;;;;1999.90;999.90;;;;;;;2.52;81.86;97198.00;4967673;28;20360;-65
2021/01/13 01:46:38;;;;;;;1999.90;999.90;;;;;;;2.74;81.74;97193.75;4961206;28;20129;-65
2021/01/13 01:49:04;;;;;;;1999.90;999.90;;;;;;;2.45;81.22;97203.03;4969685;28;20564;-65
2021/01/13 01:51:45;;;;;;;1999.90;999.90;;;;;;;2.50;80.98;97200.22;4969010;28;20101;-65
2021/01/13 01:54:15;;;;;;;1999.90;999.90;;;;;;;2.55;81.27;97210.25;4962372;28;20117;-65
2021/01/13 01:56:44;;;;;;;1999.90;999.90;;;;;;;2.73;80.46;97225.72;4961280;28;20043;-64
2021/01/13 01:59:15;;;;;;;1999.90;999.90;;;;;;;3.00;79.88;97215.91;4963378;28;20415;-65
2021/01/13 02:01:51;;;;;;;1999.90;999.90;;;;;;;2.81;79.31;97208.66;4966900;28;20053;-65
2021/01/13 02:04:30;;;;;;;1999.90;999.90;;;;;;;3.17;78.67;97204.38;4968753;28;20061;-65
2021/01/13 02:07:08;;;;;;;1999.90;999.90;;;;;;;3.15;78.23;97210.13;4965745;28;20507;-65
2021/01/13 02:09:36;;;;;;;1999.90;999.90;;;;;;;2.92;78.62;97211.19;4962305;28;20106;-65
2021/01/13 02:12:13;;;;;;;1999.90;999.90;;;;;;;3.10;78.41;97206.72;4968625;28;20051;-65
2021/01/13 02:14:41;;;;;;;1999.90;999.90;;;;;;;3.03;78.24;97212.56;4961938;28;20069;-65
2021/01/13 02:17:11;;;;;;;1999.90;999.90;;;;;;;2.90;79.05;97216.13;4968714;28;20053;-65
2021/01/13 02:19:49;;;;;;;1999.90;999.90;;;;;;;3.10;78.46;97212.97;4967958;28;20054;-65
2021/01/13 02:22:18;;;;;;;1999.90;999.90;;;;;;;3.25;77.87;97216.53;4968195;28;20046;-65
2021/01/13 02:25:10;;;;;;;1999.90;999.90;;;;;;;3.25;77.67;97220.06;4966194;28;20069;-65
2021/01/13 02:27:55;;;;;;;;;;;;;;;3.18;78.19;97212.25;4965638;28;20050;-65
2021/01/13 02:30:29;;;;;;;1999.90;999.90;;;;;;;3.22;78.22;97219.88;4963018;28;19926;-65
2021/01/13 02:32:58;;;;;;;1999.90;999.90;;;;;;;3.06;78.55;97217.44;4966987;28;20104;-65
2021/01/13 02:35:28;;;;;;;1999.90;999.90;;;;;;;3.10;78.21;97218.44;4962392;28;20546;-65
2021/01/13 02:38:08;;;;;;;1999.90;999.90;;;;;;;3.04;78.36;97224.31;4964360;28;20054;-65
2021/01/13 02:40:36;;;;;;;1999.90;999.90;;;;;;;2.77;79.73;97234.09;4963984;28;20101;-65
2021/01/13 02:43:09;;;;;;;1999.90;999.90;;;;;;;2.72;79.82;97234.22;4968824;28;20058;-65
2021/01/13 02:45:35;;;;;;;1999.90;999.90;;;;;;;2.81;79.09;97235.94;4962040;28;20551;-65
2021/01/13 02:48:09;;;;;;;1999.90;999.90;;;;;;;2.36;80.86;97230.19;4968221;28;20054;-65
2021/01/13 02:50:44;;;;;;;1999.90;999.90;;;;;;;2.63;80.07;97234.09;4966029;28;20524;-65
2021/01/13 02:53:13;;;;;;;1999.90;999.90;;;;;;;2.66;79.83;97236.22;4967643;28;20074;-65
2021/01/13 02:55:45;;;;;;;1999.90;999.90;;;;;;;2.52;80.23;97238.13;4968315;28;20055;-65
2021/01/13 02:58:13;;;;;;;1999.90;999.90;;;;;;;2.24;81.21;97227.94;4965769;28;20043;-65
2021/01/13 03:00:39;;;;;;;1999.90;999.90;;;;;;;2.11;82.27;97242.34;4967916;28;20061;-65
2021/01/13 03:03:06;;;;;;;1999.90;999.90;;;;;;;1.92;83.14;97234.19;4967715;28;20105;-65
2021/01/13 03:05:33;;;;;;;1999.90;999.90;;;;;;;2.00;82.86;97241.69;4966401;28;20431;-65
2021/01/13 03:08:00;;;;;;;1999.90;999.90;;;;;;;1.63;84.04;97248.00;4965408;28;20050;-65
2021/01/13 03:10:27;;;;;;;1999.90;999.90;;;;;;;1.32;85.61;97253.84;4966014;28;20093;-65
2021/01/13 03:12:58;;;;;;;1999.90;999.90;;;;;;;1.28;86.06;97248.19;4964179;28;20245;-64
2021/01/13 03:15:27;;;;;;;1999.90;999.90;;;;;;;0.45;88.55;97258.34;4959772;28;20047;-64
2021/01/13 03:18:00;;;;;;;1999.90;999.90;;;;;;;0.50;88.84;97271.88;4960429;28;20046;-64
2021/01/13 03:20:31;;;;;;;1999.90;999.90;;;;;;;0.41;88.19;97279.03;4965359;28;20055;-65
2021/01/13 03:23:32;;;;;;;1999.90;999.90;;;;;;;0.52;88.67;97272.41;4967260;28;20443;-64
2021/01/13 03:26:02;;;;;;;1999.90;999.90;;;;;;;0.64;87.58;97278.28;4939267;29;20051;-64
2021/01/13 03:28:37;;;;;;;1999.90;999.90;;;;;;;0.70;86.48;97282.56;4959119;28;20043;-64
2021/01/13 03:31:04;;;;;;;1999.90;999.90;;;;;;;0.31;86.94;97285.38;4961386;28;20105;-64
2021/01/13 03:34:00;;;;;;;1999.90;999.90;;;;;;;0.24;85.90;97296.59;4960910;28;20516;-65
2021/01/13 03:36:35;;;;;;;1999.90;999.90;;;;;;;0.67;85.45;97296.75;4960799;28;20093;-64
2021/01/13 03:39:06;;;;;;;1999.90;999.90;;;;;;;0.38;84.49;97298.66;4965443;28;20368;-64
2021/01/13 03:41:54;;;;;;;1999.90;999.90;;;;;;;0.30;85.21;97309.06;4966982;28;20047;-64
2021/01/13 03:44:29;;;;;;;1999.90;999.90;;;;;;;0.66;84.49;97291.59;4961546;28;20341;-64
2021/01/13 03:46:56;;;;;;;1999.90;999.90;;;;;;;0.37;84.26;97302.47;4965273;28;20051;-64
2021/01/13 03:49:27;;;;;;;1999.90;999.90;;;;;;;0.22;83.73;97311.56;4966716;28;20117;-65
2021/01/13 03:52:11;;;;;;;1999.90;999.90;;;;;;;-0.02;84.57;97313.06;4967016;28;20058;-64
2021/01/13 03:54:37;;;;;;;1999.90;999.90;;;;;;;0.04;84.69;97315.78;4966788;28;20063;-64
2021/01/13 03:57:06;;;;;;;1999.90;999.90;;;;;;;0.28;83.56;97319.41;4962224;28;20530;-64
2021/01/13 04:00:07;;;;;;;1999.90;999.90;;;;;;;0.47;82.52;97321.41;4957752;28;20047;-64
2021/01/13 04:02:38;;;;;;;;;;;;;;;0.38;81.94;97325.84;4939396;29;20051;-65
2021/01/13 04:05:23;;;;;;;1999.90;999.90;;;;;;;-0.03;83.70;97327.78;4946738;28;19922;-65
2021/01/13 04:07:51;;;;;;;1999.90;999.90;;;;;;;0.17;83.60;97324.09;4963301;28;20234;-65
2021/01/13 04:10:17;;;;;;;1999.90;999.90;;;;;;;0.03;83.79;97334.00;4965992;28;20260;-64
2021/01/13 04:12:49;;;;;;;1999.90;999.90;;;;;;;-0.20;84.24;97338.19;4965356;28;20051;-64
2021/01/13 04:15:18;;;;;;;1999.90;999.90;;;;;;;-0.06;84.40;97339.22;4959363;28;20139;-65
2021/01/13 04:17:46;;;;;;;1999.90;999.90;;;;;;;-0.27;84.51;97329.53;4960741;28;20058;-64
2021/01/13 04:20:13;;;;;;;1999.90;999.90;;;;;;;-0.09;84.09;97339.78;4965776;28;20042;-64
2021/01/13 04:22:40;;;;;;;1999.90;999.90;;;;;;;-0.02;83.40;97336.72;4965763;28;20550;-65
2021/01/13 04:25:07;;;;;;;1999.90;999.90;;;;;;;-0.27;84.16;97340.41;4965763;28;20309;-64
2021/01/13 04:27:33;;;;;;;1999.90;999.90;;;;;;;-0.23;84.14;97342.28;4965824;28;20452;-64
2021/01/13 04:30:00;;;;;;;1999.90;999.90;;;;;;;0.03;83.75;97344.03;4963565;28;20121;-64
2021/01/13 04:32:26;;;;;;;1999.90;999.90;;;;;;;0.12;82.40;97347.78;4965928;28;20097;-65
2021/01/13 04:34:52;;;;;;;1999.90;999.90;;;;;;;0.28;81.74;97346.59;4958996;28;20085;-65
2021/01/13 04:37:19;;;;;;;1999.90;999.90;;;;;;;0.28;82.73;97354.75;4964975;28;20047;-65
2021/01/13 04:39:46;;;;;;;1999.90;999.90;;;;;;;0.35;81.72;97340.81;4967067;28;20078;-65
2021/01/13 04:42:13;;;;;;;1999.90;999.90;;;;;;;0.59;81.64;97345.53;4966428;28;20055;-64
2021/01/13 04:45:02;;;;;;;1999.90;999.90;;;;;;;0.19;81.79;97348.28;4967007;28;20058;-64
2021/01/13 04:47:46;;;;;;;1999.90;999.90;;;;;;;0.39;82.24;97350.06;4965167;28;20085;-64
2021/01/13 04:50:15;;;;;;;1999.90;999.90;;;;;;;0.17;81.64;97350.47;4966101;28;20101;-65
2021/01/13 04:52:42;;;;;;;1999.90;999.90;;;;;;;0.09;82.05;97348.34;4965340;28;20496;-64
2021/01/13 04:55:22;;;;;;;1999.90;999.90;;;;;;;-0.13;83.09;97354.22;4965268;28;20054;-64
2021/01/13 04:58:20;;;;;;;1999.90;999.90;;;;;;;-0.49;82.95;97351.63;4967977;28;20054;-65
2021/01/13 05:01:07;;;;;;;1999.90;999.90;;;;;;;-0.17;82.49;97362.09;4968728;28;20051;-64
2021/01/13 05:03:41;;;;;;;1999.90;999.90;;;;;;;-0.14;81.25;97358.81;4966856;28;20604;-65
2021/01/13 05:06:31;;;;;;;1999.90;999.90;;;;;;;0.09;81.17;97364.66;4968747;28;20133;-64
2021/01/13 05:09:08;;;;;;;1999.90;999.90;;;;;;;0.28;81.26;97368.34;4967371;28;20105;-64
2021/01/13 05:11:43;;;;;;;1999.90;999.90;;;;;;;0.35;80.43;97373.47;4965634;28;20054;-64
2021/01/13 05:14:11;;;;;;;1999.90;999.90;;;;;;;-0.23;81.13;97368.66;4964436;28;20051;-64
2021/01/13 05:17:02;;;;;;;1999.90;999.90;;;;;;;0.14;81.53;97372.78;4961948;28;20058;-64
2021/01/13 05:19:32;;;;;;;1999.90;999.90;;;;;;;-0.02;81.16;97380.22;4965074;28;20085;-65
2021/01/13 05:22:00;;;;;;;1999.90;999.90;;;;;;;0.17;81.01;97377.66;4963007;28;20050;-64
2021/01/13 05:24:28;;;;;;;1999.90;999.90;;;;;;;0.44;79.93;97382.63;4963373;28;20050;-64
2021/01/13 05:27:02;;;;;;;1999.90;999.90;;;;;;;0.63;79.21;97385.50;4964528;28;20050;-64
2021/01/13 05:29:36;;;;;;;1999.90;999.90;;;;;;;0.61;78.78;97381.44;4959668;28;20094;-64
2021/01/13 05:32:06;;;;;;;1999.90;999.90;;;;;;;0.79;78.06;97382.63;4963932;28;20367;-64
2021/01/13 05:34:37;;;;;;;1999.90;999.90;;;;;;;0.39;78.87;97379.97;4965250;28;20057;-64
2021/01/13 05:37:12;;;;;;;1999.90;999.90;;;;;;;0.42;79.42;97387.56;4964306;28;20129;-64
2021/01/13 05:39:39;;;;;;;1999.90;999.90;;;;;;;0.57;79.31;97391.28;4965523;28;20062;-64
2021/01/13 05:42:06;;;;;;;1999.90;999.90;;;;;;;0.64;78.46;97387.13;4965244;28;20055;-64
2021/01/13 05:44:32;;;;;;;1999.90;999.90;;;;;;;0.48;78.59;97394.59;4958109;28;20387;-65
2021/01/13 05:47:04;;;;;;;1999.90;999.90;;;;;;;0.28;78.82;97395.56;4962232;28;20463;-66
2021/01/13 05:49:32;;;;;;;1999.90;999.90;;;;;;;0.19;79.48;97388.25;4961757;28;20053;-65
2021/01/13 05:52:08;;;;;;;1999.90;999.90;;;;;;;0.77;78.19;97401.97;4962278;28;20529;-64
2021/01/13 05:54:38;;;;;;;1999.90;999.90;;;;;;;0.55;78.77;97396.16;4964227;28;20514;-64
2021/01/13 05:57:06;;;;;;;1999.90;999.90;;;;;;;0.62;77.70;97402.91;4963223;28;20344;-64
2021/01/13 05:59:34;;;;;;;1999.90;999.90;;;;;;;0.88;77.65;97403.53;4956662;28;20076;-64
2021/01/13 06:02:02;;;;;;;1999.90;999.90;;;;;;;1.25;75.53;97395.84;4965808;28;20642;-65
2021/01/13 06:04:29;;;;;;;1999.90;999.90;;;;;;;0.83;75.85;97408.19;4965064;28;20145;-64
2021/01/13 06:07:19;;;;;;;1999.90;999.90;;;;;;;0.74;77.18;97407.19;4954814;28;20522;-64
2021/01/13 06:09:52;;;;;;;1999.90;999.90;;;;;;;0.90;76.60;97405.16;4962677;28;20038;-64
2021/01/13 06:12:19;;;;;;;1999.90;999.90;;;;;;;0.85;76.43;97409.53;4962036;28;20563;-64
2021/01/13 06:14:50;;;;;;;1999.90;999.90;;;;;;;0.53;76.52;97419.03;4965779;28;20057;-64
2021/01/13 06:17:22;;;;;;;1999.90;999.90;;;;;;;0.76;77.45;97413.13;4964611;28;20050;-64
2021/01/13 06:19:50;;;;;;;1999.90;999.90;;;;;;;1.07;76.52;97418.31;4961662;28;20538;-64
2021/01/13 06:22:17;;;;;;;1999.90;999.90;;;;;;;0.71;76.42;97416.72;4965530;28;20109;-64
2021/01/13 06:24:46;;;;;;;1999.90;999.90;;;;;;;0.88;76.63;97416.31;4963917;28;20581;-65
2021/01/13 06:27:22;;;;;;;1999.90;999.90;;;;;;;0.25;77.40;97426.00;4958733;28;20066;-64
2021/01/13 06:29:51;;;;;;;1999.90;999.90;;;;;;;0.48;78.02;97423.72;4962066;28;20168;-64
2021/01/13 06:32:33;;;;;;;1999.90;999.90;;;;;;;0.80;77.24;97439.50;4961523;28;20058;-64
2021/01/13 06:35:38;;;;;;;1999.90;999.90;;;;;;;1.34;75.44;97437.69;4965575;28;20051;-64
2021/01/13 06:38:09;;;;;;;1999.90;999.90;;;;;;;1.21;74.90;97438.34;4963853;28;20050;-64
2021/01/13 06:40:37;;;;;;;1999.90;999.90;;;;;;;1.01;75.31;97442.06;4961665;28;20507;-64
2021/01/13 06:43:13;;;;;;;1999.90;999.90;;;;;;;1.43;74.49;97439.78;4965390;28;20086;-64
2021/01/13 06:45:40;;;;;;;1999.90;999.90;;;;;;;1.63;73.60;97442.28;4964744;28;20372;-64
2021/01/13 06:48:07;;;;;;;1999.90;999.90;;;;;;;1.53;73.99;97445.94;4965766;28;20063;-64
2021/01/13 06:50:41;;;;;;;1999.90;999.90;;;;;;;1.73;73.26;97450.34;4964855;28;20051;-64
2021/01/13 06:53:11;;;;;;;1999.90;999.90;;;;;;;1.42;74.35;97454.50;4957007;28;20062;-64
2021/01/13 06:55:40;;;;;;;1999.90;999.90;;;;;;;1.59;74.07;97452.13;4965027;28;20557;-64
2021/01/13 06:58:16;;;;;;;1999.90;999.90;;;;;;;1.39;73.75;97456.69;4959541;28;20054;-64
2021/01/13 07:00:44;;;;;;;1999.90;999.90;;;;;;;1.12;74.99;97462.66;4964700;28;20109;-64
2021/01/13 07:03:29;;;;;;;1999.90;999.90;;;;;;;0.97;74.88;97469.06;4958203;28;20513;-64
2021/01/13 07:06:15;;;;;;;1999.90;999.90;;;;;;;1.05;75.49;97468.44;4959104;28;20415;-64
2021/01/13 07:08:41;;;;;;;1999.90;999.90;;;;;;;1.33;75.36;97466.03;4961335;28;20137;-64
2021/01/13 07:11:10;;;;;;;1999.90;999.90;;;;;;;1.29;74.42;97466.88;4962646;28;20384;-64
2021/01/13 07:13:39;;;;;;;1999.90;999.90;;;;;;;1.27;75.04;97469.09;4964877;28;20054;-64
2021/01/13 07:16:07;;;;;;;1999.90;999.90;;;;;;;1.45;74.71;97462.91;4964804;28;20055;-64
2021/01/13 07:18:35;;;;;;;1999.90;999.90;;;;;;;1.24;75.29;97475.91;4959796;28;20051;-65
2021/01/13 07:21:06;;;;;;;1999.90;999.90;;;;;;;1.27;75.56;97483.50;4956671;28;20058;-64
2021/01/13 07:23:33;;;;;;;1999.90;999.90;;;;;;;1.04;74.69;97483.16;4964251;28;20069;-63
2021/01/13 07:26:00;;;;;;;1999.90;999.90;;;;;;;1.08;74.59;97488.03;4965299;28;20117;-63
2021/01/13 07:28:35;;;;;;;1999.90;999.90;;;;;;;1.14;75.31;97484.16;4963961;28;20483;-63
2021/01/13 07:31:02;;;;;;;1999.90;999.90;;;;;;;0.82;76.12;97486.31;4964118;28;20479;-63
2021/01/13 07:33:44;;;;;;;1999.90;999.90;;;;;;;0.52;76.67;97487.31;4443260;28;10001379;-63
2021/01/13 07:36:19;;;;;;;1999.90;999.90;;;;;;;0.53;76.72;97483.50;4940986;28;20302;-63
2021/01/13 07:38:48;;;;;;;1999.90;999.90;;;;;;;0.30;77.49;97479.56;4941767;29;20054;-64
2021/01/13 07:41:51;;;;;;;1999.90;999.90;;;;;;;0.62;76.52;97476.38;4935980;28;20572;-64
2021/01/13 07:44:39;;;;;;;1999.90;999.90;;;;;;;0.69;75.48;97471.44;4918298;29;20117;-64
2021/01/13 07:47:32;;;;;;;1999.90;999.90;;;;;;;0.89;75.18;97477.81;4940646;29;20059;-63
2021/01/13 07:50:09;;;;;;;1999.90;999.90;;;;;;;1.16;75.01;97480.06;4929000;29;20055;-63
2021/01/13 07:52:40;;;;;;;1999.90;999.90;;;;;;;1.67;73.27;97484.22;4935575;29;20055;-63
2021/01/13 07:55:15;;;;;;;1999.90;999.90;;;;;;;1.98;72.40;97483.06;4931362;28;20051;-64
2021/01/13 07:57:55;;;;;;;1999.90;999.90;;;;;;;1.92;72.23;97474.13;4935913;29;20130;-63
2021/01/13 08:00:28;;;;;;;1999.90;999.90;;;;;;;2.10;71.89;97487.00;4937243;28;20055;-63
2021/01/13 08:03:32;;;;;;;1999.90;999.90;;;;;;;2.36;70.96;97489.41;4926085;29;20062;-63
2021/01/13 08:06:27;;;;;;;1999.90;999.90;;;;;;;2.10;71.32;97497.91;4929185;29;20055;-63
2021/01/13 08:08:59;;;;;;;1999.90;999.90;;;;;;;1.93;71.17;97500.28;4930212;28;20052;-63
2021/01/13 08:11:52;;;;;;;1999.90;999.90;;;;;;;1.35;73.09;97512.84;4941394;29;20055;-63
2021/01/13 08:14:51;;;;;;;1999.90;999.90;;;;;;;0.86;76.96;97509.16;4936205;29;20058;-63
2021/01/13 08:17:27;;;;;;;1999.90;999.90;;;;;;;0.64;80.08;97512.28;4909024;29;20519;-63
2021/01/13 08:20:21;;;;;;;1999.90;999.90;;;;;;;0.95;78.62;97512.06;4929992;29;20130;-63
2021/01/13 08:23:08;;;;;;;1999.90;999.90;;;;;;;1.10;78.61;97502.16;4939077;28;20567;-63
2021/01/13 08:25:37;;;;;;;1999.90;999.90;;;;;;;1.22;78.23;97508.88;4935891;29;20047;-63
2021/01/13 08:28:05;;;;;;;1999.90;999.90;;;;;;;1.43;77.67;97510.59;4936476;28;20060;-63
2021/01/13 08:30:31;;;;;;;1999.90;999.90;;;;;;;1.47;76.16;97511.66;4944940;28;20047;-64
2021/01/13 08:32:58;;;;;;;1999.90;999.90;;;;;;;1.18;76.89;97520.63;4940177;29;20054;-63
2021/01/13 08:35:35;;;;;;;1999.90;999.90;;;;;;;1.34;76.42;97507.69;4948763;28;20047;-64
2021/01/13 08:38:10;;;;;;;1999.90;999.90;;;;;;;1.07;76.88;97508.19;4943371;28;20179;-63
2021/01/13 08:40:39;;;;;;;1999.90;999.90;;;;;;;1.01;76.75;97513.69;4939020;28;20139;-63
2021/01/13 08:43:14;;;;;;;1999.90;999.90;;;;;;;1.08;76.21;97515.28;4932377;29;20188;-63
2021/01/13 08:45:44;;;;;;;1999.90;999.90;;;;;;;1.43;75.88;97514.16;4937812;29;20056;-63
2021/01/13 08:48:12;;;;;;;1999.90;999.90;;;;;;;1.56;74.89;97509.94;4941196;28;20122;-64
2021/01/13 08:50:40;;;;;;;1999.90;999.90;;;;;;;1.31;75.16;97503.63;4934394;29;20122;-64
2021/01/13 08:53:06;;;;;;;1999.90;999.90;;;;;;;1.26;75.66;97506.38;4934309;28;20456;-64
2021/01/13 08:55:34;;;;;;;1999.90;999.90;;;;;;;1.40;75.28;97507.38;4945204;29;20324;-63
2021/01/13 08:58:13;;;;;;;1999.90;999.90;;;;;;;1.49;74.76;97499.38;4942003;28;20051;-63
2021/01/13 09:00:39;;;;;;;1999.90;999.90;;;;;;;1.65;74.13;97505.47;4940816;28;20512;-64
2021/01/13 09:03:10;;;;;;;1999.90;999.90;;;;;;;1.79;74.09;97499.34;4945406;28;20050;-64
2021/01/13 09:05:39;;;;;;;1999.90;999.90;;;;;;;1.73;73.31;97495.88;4947404;28;20069;-64
2021/01/13 09:08:08;;;;;;;1999.90;999.90;;;;;;;1.81;73.05;97495.22;4938792;28;20047;-64
2021/01/13 09:10:46;;;;;;;1999.90;999.90;;;;;;;1.79;72.78;97512.97;4941180;29;20063;-64
2021/01/13 09:13:44;;;;;;;1999.90;999.90;;;;;;;1.98;72.38;97499.41;4935785;29;20055;-64
2021/01/13 09:16:22;;;;;;;1999.90;999.90;;;;;;;1.98;72.99;97507.59;4903989;28;20102;-64
2021/01/13 09:18:57;;;;;;;1999.90;999.90;;;;;;;1.79;72.64;97512.97;4939423;29;20074;-64
2021/01/13 09:21:31;;;;;;;1999.90;999.90;;;;;;;2.09;71.83;97518.09;4935522;29;20697;-64
2021/01/13 09:23:59;;;;;;;1999.90;999.90;;;;;;;2.13;71.86;97501.16;4939612;28;20063;-64
2021/01/13 09:26:33;;;;;;;1999.90;999.90;;;;;;;1.62;72.56;97507.97;4944110;28;20059;-64
2021/01/13 09:29:02;;;;;;;1999.90;999.90;;;;;;;1.80;72.97;97514.59;4935710;29;20469;-64
2021/01/13 09:31:29;;;;;;;1999.90;999.90;;;;;;;2.02;72.84;97514.09;4933729;29;20500;-64
2021/01/13 09:33:57;;;;;;;1999.90;999.90;;;;;;;2.05;73.05;97511.59;4941625;28;20061;-64
2021/01/13 09:36:24;;;;;;;1999.90;999.90;;;;;;;2.28;72.41;97517.34;4946801;28;20055;-64
2021/01/13 09:39:10;;;;;;;1999.90;999.90;;;;;;;2.60;71.44;97511.19;4941535;29;20496;-65
2021/01/13 09:41:39;;;;;;;1999.90;999.90;;;;;;;2.74;70.91;97510.44;4943023;28;20508;-65
2021/01/13 09:44:13;;;;;;;1999.90;999.90;;;;;;;2.62;71.59;97508.16;4941650;28;20789;-65
2021/01/13 09:46:41;;;;;;;1999.90;999.90;;;;;;;2.32;72.15;97510.19;4935445;29;20275;-63
2021/01/13 09:49:11;;;;;;;1999.90;999.90;;;;;;;1.93;72.99;97514.72;4939571;28;20052;-63
2021/01/13 09:51:39;;;;;;;1999.90;999.90;;;;;;;2.33;73.00;97508.28;4942903;29;20106;-63
2021/01/13 09:54:08;;;;;;;1999.90;999.90;;;;;;;2.64;72.32;97505.97;4933753;29;20063;-63
2021/01/13 09:56:35;;;;;;;1999.90;999.90;;;;;;;2.89;72.15;97496.59;4945575;28;20055;-63
2021/01/13 09:59:04;;;;;;;1999.90;999.90;;;;;;;2.67;71.43;97499.91;4942321;28;20400;-63
2021/01/13 10:01:39;;;;;;;1999.90;999.90;;;;;;;2.65;72.04;97502.13;4936636;29;20059;-63
2021/01/13 10:04:12;;;;;;;1999.90;999.90;;;;;;;2.65;71.91;97491.22;4933806;29;20587;-63
2021/01/13 10:06:41;;;;;;;1999.90;999.90;;;;;;;2.89;71.27;97490.28;4943014;28;20059;-63
2021/01/13 10:09:18;;;;;;;1999.90;999.90;;;;;;;2.96;71.34;97485.28;4932442;29;20496;-63
2021/01/13 10:11:51;;;;;;;1999.90;999.90;;;;;;;3.04;71.20;97486.50;4932960;28;20053;-63
2021/01/13 10:14:20;;;;;;;1999.90;999.90;;;;;;;2.25;73.50;97480.53;4937765;28;20052;-63
2021/01/13 10:16:47;;;;;;;1999.90;999.90;;;;;;;2.68;72.64;97476.97;4939340;28;20066;-63
2021/01/13 10:19:14;;;;;;;1999.90;999.90;;;;;;;2.46;73.25;97478.34;4935981;28;20262;-63
2021/01/13 10:21:42;;;;;;;1999.90;999.90;;;;;;;2.46;73.68;97477.56;4938363;29;20063;-63
2021/01/13 10:24:12;;;;;;;1999.90;999.90;;;;;;;2.71;72.80;97478.28;4936073;28;20079;-63
2021/01/13 10:26:59;;;;;;;1999.90;999.90;;;;;;;2.77;73.53;97477.91;4940542;28;20082;-63
2021/01/13 10:29:25;;;;;;;1999.90;999.90;;;;;;;2.35;73.98;97476.84;4937177;28;20051;-63
2021/01/13 10:31:52;;;;;;;1999.90;999.90;;;;;;;2.60;73.49;97477.63;4933768;29;20464;-63
2021/01/13 10:34:19;;;;;;;1999.90;999.90;;;;;;;2.73;74.13;97476.88;4934236;28;20055;-63
2021/01/13 10:36:47;;;;;;;1999.90;999.90;;;;;;;2.98;73.37;97472.16;4938512;29;20523;-64
2021/01/13 10:39:16;;;;;;;1999.90;999.90;;;;;;;2.98;73.55;97472.16;4943277;28;20086;-63
2021/01/13 10:41:42;;;;;;;1999.90;999.90;;;;;;;2.87;73.44;97479.66;4937365;29;20051;-63
2021/01/13 10:44:23;;;;;;;1999.90;999.90;;;;;;;1.98;77.65;97477.59;4930627;28;20051;-63
2021/01/13 10:46:56;;;;;;;1999.90;999.90;;;;;;;1.16;80.48;97485.53;4936404;29;20063;-63
2021/01/13 10:49:37;;;;;;;1999.90;999.90;;;;;;;1.05;82.35;97487.50;4942468;29;20051;-63
2021/01/13 10:52:21;;;;;;;1999.90;999.90;;;;;;;1.11;83.13;97488.28;4933735;29;20063;-63
2021/01/13 10:54:52;;;;;;;1999.90;999.90;;;;;;;1.26;83.17;97479.16;4936503;28;20055;-62
2021/01/13 10:57:29;;;;;;;1999.90;999.90;;;;;;;1.63;82.04;97476.91;4928999;29;20051;-65
2021/01/13 11:00:11;;;;;;;1999.90;999.90;;;;;;;1.68;81.82;97483.13;4934166;29;20478;-63
2021/01/13 11:02:38;;;;;;;;;;;;;;;1.23;82.74;97475.09;4940438;29;20155;-63
2021/01/13 11:05:05;;;;;;;1999.90;999.90;;;;;;;1.42;82.32;97470.84;4938509;28;20024;-63
2021/01/13 11:07:39;;;;;;;1999.90;999.90;;;;;;;1.67;82.75;97456.97;4940129;28;20059;-63
2021/01/13 11:10:10;;;;;;;1999.90;999.90;;;;;;;1.39;81.83;97459.41;4940761;29;20047;-62
2021/01/13 11:12:36;;;;;;;1999.90;999.90;;;;;;;1.45;82.29;97453.94;4938741;28;20052;-63
2021/01/13 11:15:08;;;;;;;1999.90;999.90;;;;;;;1.57;82.24;97451.63;4933540;28;20428;-63
2021/01/13 11:17:35;;;;;;;1999.90;999.90;;;;;;;1.72;80.48;97443.25;4943438;29;20055;-63
2021/01/13 11:20:06;;;;;;;1999.90;999.90;;;;;;;1.88;79.51;97443.09;4934713;28;20070;-63
2021/01/13 11:22:53;;;;;;;1999.90;999.90;;;;;;;2.23;78.46;97435.56;4935719;28;20059;-63
2021/01/13 11:25:42;;;;;;;1999.90;999.90;;;;;;;2.26;78.62;97438.53;4936570;28;20460;-63